Zataženo
Zataženo
Zataženo
Zataženo
Převážně zataženo
Převážně zataženo
Polojasno
(°C)
(°C)
-1°
-1°
-1°
-1°
-1°
-2°
ZSZ
ZSZ
ZSZ
ZSZ
ZSZ
Z
ZSZ
(km/h)
14-31
13-28
12-24
10-20
9-20
8-17
7-15
(mm)
0
0
0
0
0
0
0
(%)
0
0
0
0
0
0
0

Sluneční výška

/ 23.8°
sun-icon
UV 2
05:20
19:48
Dorůstající měsíc (163°)
18:18
04:54

METAR pro 52.17°S 20.97°V (EPWA)

Čas Podmínky Teplota/
Rosný bod
Vítr Viditelnost Počasí Oblaky Tlak Změna Nezpracované
VFR 5°C / -1°C 290º 11kt 9700m - Broken Clouds 3400ft 1019 No Significant change EPWA 221430Z 29011KT 9999 BKN034 05/M01 Q1019 NOSIG
VFR 5°C / -2°C 290º 11kt 9700m - Broken Clouds 3400ft 1019 No Significant change EPWA 221400Z 29011KT 9999 BKN034 05/M02 Q1019 NOSIG
VFR 5°C / -2°C 280º variable 250º to 320º 11kt 9700m - Broken Clouds 3300ft 1019 No Significant change EPWA 221330Z 28011KT 250V320 9999 BKN033 05/M02 Q1019 NOSIG
VFR 5°C / -2°C 280º 11kt 9700m - Broken Clouds 3300ft 1019 No Significant change EPWA 221300Z 28011KT 9999 BKN033 05/M02 Q1019 NOSIG
VFR 5°C / -2°C 290º 10kt 9700m - Broken Clouds 3400ft 1019 No Significant change EPWA 221230Z 29010KT 9999 BKN034 05/M02 Q1019 NOSIG
VFR 5°C / -2°C 300º 11kt 9700m - Broken Clouds 3200ft 1019 No Significant change EPWA 221200Z 30011KT 9999 BKN032 05/M02 Q1019 NOSIG
VFR 5°C / -2°C 290º variable 260º to 320º 12kt 9700m - Broken Clouds 3200ft 1019 No Significant change EPWA 221130Z 29012KT 260V320 9999 BKN032 05/M02 Q1019 NOSIG
MVFR 5°C / -2°C 300º 11kt 9700m - Broken Clouds 2900ft 1019 No Significant change EPWA 221100Z 30011KT 9999 BKN029 05/M02 Q1019 NOSIG
MVFR 4°C / -2°C 300º 11kt 9700m - Broken Clouds 2900ft 1019 No Significant change EPWA 221030Z 30011KT 9999 BKN029 04/M02 Q1019 NOSIG
MVFR 4°C / -2°C 300º 10kt 9700m - Broken Clouds 2800ft 1019 No Significant change EPWA 221000Z 30010KT 9999 BKN028 04/M02 Q1019 NOSIG
MVFR 4°C / -2°C 290º 12kt 9700m - Broken Clouds 2800ft 1018 No Significant change EPWA 220930Z 29012KT 9999 BKN028 04/M02 Q1018 NOSIG
MVFR 4°C / -2°C 290º variable 260º to 320º 11kt 9700m - Broken Clouds 2600ft 1018 No Significant change EPWA 220900Z 29011KT 260V320 9999 BKN026 04/M02 Q1018 NOSIG
MVFR 4°C / -1°C 280º 12kt 9700m - Broken Clouds 2300ft 1018 No Significant change EPWA 220830Z 28012KT 9999 BKN023 04/M01 Q1018 NOSIG
MVFR 4°C / 0°C 310º 11kt 9700m - Broken Clouds 2000ft
Broken Clouds 3900ft
1018 No Significant change EPWA 220800Z 31011KT 9999 BKN020 BKN039 04/M00 Q1018 NOSIG
MVFR 4°C / -1°C 310º 11kt 9700m - Broken Clouds 1900ft
Broken Clouds 3900ft
1018 No Significant change EPWA 220730Z 31011KT 9999 BKN019 BKN039 04/M01 Q1018 NOSIG
MVFR 3°C / -1°C 300º 9kt 9700m - Broken Clouds 1700ft
Broken Clouds 3900ft
1018 No Significant change EPWA 220700Z 30009KT 9999 BKN017 BKN039 03/M01 Q1018 NOSIG
MVFR 3°C / -1°C 310º 10kt 9700m - Broken Clouds 1600ft
Broken Clouds 4000ft
1018 No Significant change EPWA 220630Z 31010KT 9999 BKN016 BKN040 03/M01 Q1018 NOSIG
MVFR 2°C / -1°C 310º 11kt 9700m - Broken Clouds 1600ft
Broken Clouds 4000ft
1018 No Significant change EPWA 220600Z 31011KT 9999 BKN016 BKN040 02/M01 Q1018 NOSIG
VFR 2°C / -1°C 300º 11kt 9700m - Scattered Clouds 1800ft
Broken Clouds 4000ft
1018 No Significant change EPWA 220530Z 30011KT 9999 SCT018 BKN040 02/M01 Q1018 NOSIG
VFR 2°C / -2°C 300º 11kt 9700m - Broken Clouds 4000ft 1018 No Significant change EPWA 220500Z 30011KT 9999 BKN040 02/M02 Q1018 NOSIG
VFR 2°C / -2°C 290º 9kt 9700m - Broken Clouds 4600ft 1017 No Significant change EPWA 220430Z 29009KT 9999 BKN046 02/M02 Q1017 NOSIG
VFR 1°C / -2°C 290º 8kt 9700m - Broken Clouds 4600ft 1017 No Significant change EPWA 220400Z 29008KT 9999 BKN046 01/M02 Q1017 NOSIG
VFR 2°C / -2°C 290º 8kt 9700m - Broken Clouds 4600ft 1017 No Significant change EPWA 220330Z 29008KT 9999 BKN046 02/M02 Q1017 NOSIG
VFR 2°C / -2°C 290º 7kt 9700m - Broken Clouds 4000ft 1017 No Significant change EPWA 220300Z 29007KT 9999 BKN040 02/M02 Q1017 NOSIG

VFR

5°C / -1°C

[Víc]
Vítr 290º 11kt
Viditelnost 9700m
Počasí -
Oblaky Broken Clouds 3400ft
Tlak 1019
Změna No Significant change
Nezpracované EPWA 221430Z 29011KT 9999 BKN034 05/M01 Q1019 NOSIG

VFR

5°C / -2°C

[Víc]
Vítr 290º 11kt
Viditelnost 9700m
Počasí -
Oblaky Broken Clouds 3400ft
Tlak 1019
Změna No Significant change
Nezpracované EPWA 221400Z 29011KT 9999 BKN034 05/M02 Q1019 NOSIG

VFR

5°C / -2°C

[Víc]
Vítr 280º variable 250º to 320º 11kt
Viditelnost 9700m
Počasí -
Oblaky Broken Clouds 3300ft
Tlak 1019
Změna No Significant change
Nezpracované EPWA 221330Z 28011KT 250V320 9999 BKN033 05/M02 Q1019 NOSIG

VFR

5°C / -2°C

[Víc]
Vítr 280º 11kt
Viditelnost 9700m
Počasí -
Oblaky Broken Clouds 3300ft
Tlak 1019
Změna No Significant change
Nezpracované EPWA 221300Z 28011KT 9999 BKN033 05/M02 Q1019 NOSIG

VFR

5°C / -2°C

[Víc]
Vítr 290º 10kt
Viditelnost 9700m
Počasí -
Oblaky Broken Clouds 3400ft
Tlak 1019
Změna No Significant change
Nezpracované EPWA 221230Z 29010KT 9999 BKN034 05/M02 Q1019 NOSIG

VFR

5°C / -2°C

[Víc]
Vítr 300º 11kt
Viditelnost 9700m
Počasí -
Oblaky Broken Clouds 3200ft
Tlak 1019
Změna No Significant change
Nezpracované EPWA 221200Z 30011KT 9999 BKN032 05/M02 Q1019 NOSIG

VFR

5°C / -2°C

[Víc]
Vítr 290º variable 260º to 320º 12kt
Viditelnost 9700m
Počasí -
Oblaky Broken Clouds 3200ft
Tlak 1019
Změna No Significant change
Nezpracované EPWA 221130Z 29012KT 260V320 9999 BKN032 05/M02 Q1019 NOSIG

MVFR

5°C / -2°C

[Víc]
Vítr 300º 11kt
Viditelnost 9700m
Počasí -
Oblaky Broken Clouds 2900ft
Tlak 1019
Změna No Significant change
Nezpracované EPWA 221100Z 30011KT 9999 BKN029 05/M02 Q1019 NOSIG

MVFR

4°C / -2°C

[Víc]
Vítr 300º 11kt
Viditelnost 9700m
Počasí -
Oblaky Broken Clouds 2900ft
Tlak 1019
Změna No Significant change
Nezpracované EPWA 221030Z 30011KT 9999 BKN029 04/M02 Q1019 NOSIG

MVFR

4°C / -2°C

[Víc]
Vítr 300º 10kt
Viditelnost 9700m
Počasí -
Oblaky Broken Clouds 2800ft
Tlak 1019
Změna No Significant change
Nezpracované EPWA 221000Z 30010KT 9999 BKN028 04/M02 Q1019 NOSIG

MVFR

4°C / -2°C

[Víc]
Vítr 290º 12kt
Viditelnost 9700m
Počasí -
Oblaky Broken Clouds 2800ft
Tlak 1018
Změna No Significant change
Nezpracované EPWA 220930Z 29012KT 9999 BKN028 04/M02 Q1018 NOSIG

MVFR

4°C / -2°C

[Víc]
Vítr 290º variable 260º to 320º 11kt
Viditelnost 9700m
Počasí -
Oblaky Broken Clouds 2600ft
Tlak 1018
Změna No Significant change
Nezpracované EPWA 220900Z 29011KT 260V320 9999 BKN026 04/M02 Q1018 NOSIG

MVFR

4°C / -1°C

[Víc]
Vítr 280º 12kt
Viditelnost 9700m
Počasí -
Oblaky Broken Clouds 2300ft
Tlak 1018
Změna No Significant change
Nezpracované EPWA 220830Z 28012KT 9999 BKN023 04/M01 Q1018 NOSIG

MVFR

4°C / 0°C

[Víc]
Vítr 310º 11kt
Viditelnost 9700m
Počasí -
Oblaky Broken Clouds 2000ft
Broken Clouds 3900ft
Tlak 1018
Změna No Significant change
Nezpracované EPWA 220800Z 31011KT 9999 BKN020 BKN039 04/M00 Q1018 NOSIG

MVFR

4°C / -1°C

[Víc]
Vítr 310º 11kt
Viditelnost 9700m
Počasí -
Oblaky Broken Clouds 1900ft
Broken Clouds 3900ft
Tlak 1018
Změna No Significant change
Nezpracované EPWA 220730Z 31011KT 9999 BKN019 BKN039 04/M01 Q1018 NOSIG

MVFR

3°C / -1°C

[Víc]
Vítr 300º 9kt
Viditelnost 9700m
Počasí -
Oblaky Broken Clouds 1700ft
Broken Clouds 3900ft
Tlak 1018
Změna No Significant change
Nezpracované EPWA 220700Z 30009KT 9999 BKN017 BKN039 03/M01 Q1018 NOSIG

MVFR

3°C / -1°C

[Víc]
Vítr 310º 10kt
Viditelnost 9700m
Počasí -
Oblaky Broken Clouds 1600ft
Broken Clouds 4000ft
Tlak 1018
Změna No Significant change
Nezpracované EPWA 220630Z 31010KT 9999 BKN016 BKN040 03/M01 Q1018 NOSIG

MVFR

2°C / -1°C

[Víc]
Vítr 310º 11kt
Viditelnost 9700m
Počasí -
Oblaky Broken Clouds 1600ft
Broken Clouds 4000ft
Tlak 1018
Změna No Significant change
Nezpracované EPWA 220600Z 31011KT 9999 BKN016 BKN040 02/M01 Q1018 NOSIG

VFR

2°C / -1°C

[Víc]
Vítr 300º 11kt
Viditelnost 9700m
Počasí -
Oblaky Scattered Clouds 1800ft
Broken Clouds 4000ft
Tlak 1018
Změna No Significant change
Nezpracované EPWA 220530Z 30011KT 9999 SCT018 BKN040 02/M01 Q1018 NOSIG

VFR

2°C / -2°C

[Víc]
Vítr 300º 11kt
Viditelnost 9700m
Počasí -
Oblaky Broken Clouds 4000ft
Tlak 1018
Změna No Significant change
Nezpracované EPWA 220500Z 30011KT 9999 BKN040 02/M02 Q1018 NOSIG

VFR

2°C / -2°C

[Víc]
Vítr 290º 9kt
Viditelnost 9700m
Počasí -
Oblaky Broken Clouds 4600ft
Tlak 1017
Změna No Significant change
Nezpracované EPWA 220430Z 29009KT 9999 BKN046 02/M02 Q1017 NOSIG

VFR

1°C / -2°C

[Víc]
Vítr 290º 8kt
Viditelnost 9700m
Počasí -
Oblaky Broken Clouds 4600ft
Tlak 1017
Změna No Significant change
Nezpracované EPWA 220400Z 29008KT 9999 BKN046 01/M02 Q1017 NOSIG

VFR

2°C / -2°C

[Víc]
Vítr 290º 8kt
Viditelnost 9700m
Počasí -
Oblaky Broken Clouds 4600ft
Tlak 1017
Změna No Significant change
Nezpracované EPWA 220330Z 29008KT 9999 BKN046 02/M02 Q1017 NOSIG

VFR

2°C / -2°C

[Víc]
Vítr 290º 7kt
Viditelnost 9700m
Počasí -
Oblaky Broken Clouds 4000ft
Tlak 1017
Změna No Significant change
Nezpracované EPWA 220300Z 29007KT 9999 BKN040 02/M02 Q1017 NOSIG

TAF pro 52.17°S 20.97°V (EPWA)

From till


From till Wind 280º 10kt. Visibility 9700m. Broken Clouds 3500ft.
Becoming from till
With 40% probability, Temporarly from till Light Showers Rain Light Showers Snow . Broken Clouds 1200ft.
With 30% probability, from till Visibility 3000m. Mist .

Nezpracované: TAF EPWA 221430Z 2215/2315 28010KT 9999 BKN035 BECMG 2220/2222 VRB02KT PROB40 TEMPO 2221/2306 -SHRASN BKN012TCU PROB30 2300/2306 3000 BR

Radar a krátkodobá předpověď srážek pro 52.17°S 20.97°V

Mrholení
Slabé
Střední
Silné
Velmi silné
Kroupy

Značka lokality je umístněna na 52.17°S 20.97°V. Tato animace zobrazuje srážkový radar pro vybraný časový rozsah a také 2h předpověď. Oranžové křížky označují blesky. Údaje poskytl nowcast.de (k dispozici v USA, Evropě a Austrálii). Mrholení nebo slabé sněžení může být pro radar neviditelné. Intenzita srážek je barevně označena od tyrkysové po červenou.

Aktuální snímky ze satelitu a srážky pro 52.17°S 20.97°V

Značka polohy je umístěna na 52.17°S 20.97°V. [Víc]

Satelitní snímek v reálném čase kombinuje viditelné světlo během dne s infračerveným zářením během noci. V noci není obraz tmavý, protože infračervené záření dokáže detekovat teplotní rozdíly. Nízká oblačnost a mlha se bohužel těžko odlišují od pozemních teplot, a proto mohou být během noci téměř neviditelné. Satelitní snímky z Meteosatu pro Evropu jsou aktualizovány v reálném čase každých 5 minut. Snímky z GOES-16/GOES-17 (Severní a Jižní Amerika) a Himawari (Asie) jsou aktualizovány) každých 10 minut.

Srážky se odhadují z radarů a družic. Odhady srážek ze satelitů jsou v noci méně přesné než ve dne.

© 2024 meteoblue, NOAA Satellites GOES-16 and EUMETSAT. Údaje o blescích poskytuje nowcast.

Zpět nahoru
×
Dobrý den,
zdá se, že používáte blokovač reklam.

Reklama je nezbytná pro udržování našich bezplatných webových stránek s jedinečnými detaily a přesností.

Prosím, zapište www.meteoblue.com do svého blokovače reklam nebo zvažte nákup některého z našich produktů:

Máte již předplatné?
Pak se prosím přihlaste.